sensor_id;sensor_type;location;lat;lon;timestamp;pressure;altitude;pressure_sealevel;temperature;humidity
54038;BME280;39954;48.844;9.726;2023-06-10T00:00:28;95737.13;;;13.52;100.00
54038;BME280;39954;48.844;9.726;2023-06-10T00:01:32;95738.09;;;13.51;100.00
54038;BME280;39954;48.844;9.726;2023-06-10T00:02:38;95731.44;;;13.47;100.00
54038;BME280;39954;48.844;9.726;2023-06-10T00:03:41;95730.94;;;13.42;100.00
54038;BME280;39954;48.844;9.726;2023-06-10T00:04:47;95736.41;;;13.39;100.00
54038;BME280;39954;48.844;9.726;2023-06-10T00:05:50;95729.50;;;13.38;100.00
54038;BME280;39954;48.844;9.726;2023-06-10T00:06:58;95739.69;;;13.41;100.00
54038;BME280;39954;48.844;9.726;2023-06-10T00:08:00;95738.78;;;13.42;100.00
54038;BME280;39954;48.844;9.726;2023-06-10T00:09:09;95739.09;;;13.37;100.00
54038;BME280;39954;48.844;9.726;2023-06-10T00:10:12;95741.81;;;13.36;100.00
54038;BME280;39954;48.844;9.726;2023-06-10T00:11:17;95740.38;;;13.32;100.00
54038;BME280;39954;48.844;9.726;2023-06-10T00:12:20;95743.81;;;13.32;100.00
54038;BME280;39954;48.844;9.726;2023-06-10T00:13:25;95745.50;;;13.33;100.00
54038;BME280;39954;48.844;9.726;2023-06-10T00:14:28;95745.38;;;13.35;100.00
54038;BME280;39954;48.844;9.726;2023-06-10T00:15:34;95744.19;;;13.28;100.00
54038;BME280;39954;48.844;9.726;2023-06-10T00:16:37;95746.06;;;13.26;100.00
54038;BME280;39954;48.844;9.726;2023-06-10T00:17:47;95741.25;;;13.19;100.00
54038;BME280;39954;48.844;9.726;2023-06-10T00:18:50;95744.19;;;13.15;100.00
54038;BME280;39954;48.844;9.726;2023-06-10T00:19:57;95743.66;;;13.23;100.00
54038;BME280;39954;48.844;9.726;2023-06-10T00:21:00;95744.19;;;13.28;100.00
54038;BME280;39954;48.844;9.726;2023-06-10T00:22:10;95750.00;;;13.31;100.00
54038;BME280;39954;48.844;9.726;2023-06-10T00:23:14;95741.13;;;13.34;100.00
54038;BME280;39954;48.844;9.726;2023-06-10T00:24:19;95738.81;;;13.29;100.00
54038;BME280;39954;48.844;9.726;2023-06-10T00:25:22;95745.09;;;13.27;100.00
54038;BME280;39954;48.844;9.726;2023-06-10T00:26:28;95739.47;;;13.20;100.00
54038;BME280;39954;48.844;9.726;2023-06-10T00:27:30;95738.03;;;13.16;100.00
54038;BME280;39954;48.844;9.726;2023-06-10T00:28:37;95737.19;;;13.15;100.00
54038;BME280;39954;48.844;9.726;2023-06-10T00:29:39;95738.38;;;13.11;100.00
54038;BME280;39954;48.844;9.726;2023-06-10T00:30:46;95743.81;;;13.08;100.00
54038;BME280;39954;48.844;9.726;2023-06-10T00:31:49;95740.47;;;13.06;100.00
54038;BME280;39954;48.844;9.726;2023-06-10T00:32:56;95739.41;;;13.09;100.00
54038;BME280;39954;48.844;9.726;2023-06-10T00:33:59;95739.00;;;13.02;100.00
54038;BME280;39954;48.844;9.726;2023-06-10T00:35:05;95740.69;;;13.03;100.00
54038;BME280;39954;48.844;9.726;2023-06-10T00:36:09;95738.19;;;13.02;100.00
54038;BME280;39954;48.844;9.726;2023-06-10T00:37:17;95749.91;;;12.96;100.00
54038;BME280;39954;48.844;9.726;2023-06-10T00:38:21;95740.50;;;12.93;100.00
54038;BME280;39954;48.844;9.726;2023-06-10T00:39:26;95734.69;;;12.90;100.00
54038;BME280;39954;48.844;9.726;2023-06-10T00:40:29;95736.56;;;12.88;100.00
54038;BME280;39954;48.844;9.726;2023-06-10T00:41:34;95729.47;;;12.90;100.00
54038;BME280;39954;48.844;9.726;2023-06-10T00:42:36;95733.88;;;12.89;100.00
54038;BME280;39954;48.844;9.726;2023-06-10T00:43:42;95728.13;;;12.84;100.00
54038;BME280;39954;48.844;9.726;2023-06-10T00:44:45;95728.97;;;12.85;100.00
54038;BME280;39954;48.844;9.726;2023-06-10T00:45:51;95729.19;;;12.82;100.00
54038;BME280;39954;48.844;9.726;2023-06-10T00:46:54;95726.72;;;12.80;100.00
54038;BME280;39954;48.844;9.726;2023-06-10T00:47:59;95734.72;;;12.77;100.00
54038;BME280;39954;48.844;9.726;2023-06-10T00:49:03;95729.72;;;12.74;100.00
54038;BME280;39954;48.844;9.726;2023-06-10T00:50:10;95735.06;;;12.72;100.00
54038;BME280;39954;48.844;9.726;2023-06-10T00:51:13;95737.75;;;12.71;100.00
54038;BME280;39954;48.844;9.726;2023-06-10T00:52:22;95738.72;;;12.70;100.00
54038;BME280;39954;48.844;9.726;2023-06-10T00:53:29;95734.56;;;12.67;100.00
54038;BME280;39954;48.844;9.726;2023-06-10T00:54:34;95732.91;;;12.66;100.00
54038;BME280;39954;48.844;9.726;2023-06-10T00:55:37;95739.84;;;12.66;100.00
54038;BME280;39954;48.844;9.726;2023-06-10T00:56:43;95739.97;;;12.64;100.00
54038;BME280;39954;48.844;9.726;2023-06-10T00:57:46;95738.53;;;12.60;100.00
54038;BME280;39954;48.844;9.726;2023-06-10T00:58:51;95733.53;;;12.57;100.00
54038;BME280;39954;48.844;9.726;2023-06-10T00:59:54;95735.31;;;12.57;100.00
54038;BME280;39954;48.844;9.726;2023-06-10T01:01:00;95731.03;;;12.56;100.00
54038;BME280;39954;48.844;9.726;2023-06-10T01:02:03;95733.66;;;12.56;100.00
54038;BME280;39954;48.844;9.726;2023-06-10T01:03:10;95730.69;;;12.60;100.00
54038;BME280;39954;48.844;9.726;2023-06-10T01:04:14;95740.41;;;12.58;100.00
54038;BME280;39954;48.844;9.726;2023-06-10T01:05:23;95743.84;;;12.59;100.00
54038;BME280;39954;48.844;9.726;2023-06-10T01:06:47;95743.03;;;12.58;100.00
54038;BME280;39954;48.844;9.726;2023-06-10T01:08:09;95742.06;;;12.59;100.00
54038;BME280;39954;48.844;9.726;2023-06-10T01:09:23;95741.84;;;12.62;100.00
54038;BME280;39954;48.844;9.726;2023-06-10T01:10:33;95737.81;;;12.58;100.00
54038;BME280;39954;48.844;9.726;2023-06-10T01:11:45;95736.25;;;12.56;100.00
54038;BME280;39954;48.844;9.726;2023-06-10T01:12:54;95737.19;;;12.54;100.00
54038;BME280;39954;48.844;9.726;2023-06-10T01:14:02;95733.97;;;12.51;100.00
54038;BME280;39954;48.844;9.726;2023-06-10T01:15:08;95738.44;;;12.49;100.00
54038;BME280;39954;48.844;9.726;2023-06-10T01:16:15;95737.53;;;12.50;100.00
54038;BME280;39954;48.844;9.726;2023-06-10T01:17:17;95736.03;;;12.46;100.00
54038;BME280;39954;48.844;9.726;2023-06-10T01:18:29;95738.66;;;12.46;100.00
54038;BME280;39954;48.844;9.726;2023-06-10T01:19:32;95733.66;;;12.43;100.00
54038;BME280;39954;48.844;9.726;2023-06-10T01:20:38;95737.31;;;12.40;100.00
54038;BME280;39954;48.844;9.726;2023-06-10T01:21:44;95733.66;;;12.43;100.00
54038;BME280;39954;48.844;9.726;2023-06-10T01:22:50;95734.81;;;12.39;100.00
54038;BME280;39954;48.844;9.726;2023-06-10T01:23:56;95733.13;;;12.38;100.00
54038;BME280;39954;48.844;9.726;2023-06-10T01:25:02;95735.66;;;12.39;100.00
54038;BME280;39954;48.844;9.726;2023-06-10T01:26:09;95731.28;;;12.40;100.00
54038;BME280;39954;48.844;9.726;2023-06-10T01:27:19;95733.66;;;12.43;100.00
54038;BME280;39954;48.844;9.726;2023-06-10T01:28:27;95731.56;;;12.48;100.00
54038;BME280;39954;48.844;9.726;2023-06-10T01:29:37;95727.19;;;12.48;100.00
54038;BME280;39954;48.844;9.726;2023-06-10T01:30:46;95734.19;;;12.48;100.00
54038;BME280;39954;48.844;9.726;2023-06-10T01:31:58;95735.34;;;12.44;100.00
54038;BME280;39954;48.844;9.726;2023-06-10T01:33:06;95730.75;;;12.47;100.00
54038;BME280;39954;48.844;9.726;2023-06-10T01:34:14;95731.47;;;12.49;100.00
54038;BME280;39954;48.844;9.726;2023-06-10T01:35:20;95735.75;;;12.50;100.00
54038;BME280;39954;48.844;9.726;2023-06-10T01:36:27;95733.97;;;12.51;100.00
54038;BME280;39954;48.844;9.726;2023-06-10T01:37:34;95733.34;;;12.47;100.00
54038;BME280;39954;48.844;9.726;2023-06-10T01:38:41;95736.03;;;12.46;100.00
54038;BME280;39954;48.844;9.726;2023-06-10T01:39:45;95737.09;;;12.43;100.00
54038;BME280;39954;48.844;9.726;2023-06-10T01:40:52;95732.97;;;12.41;100.00
54038;BME280;39954;48.844;9.726;2023-06-10T01:41:57;95737.44;;;12.39;100.00
54038;BME280;39954;48.844;9.726;2023-06-10T01:43:03;95731.69;;;12.34;100.00
54038;BME280;39954;48.844;9.726;2023-06-10T01:44:11;95729.31;;;12.30;100.00
54038;BME280;39954;48.844;9.726;2023-06-10T01:45:13;95733.56;;;12.31;100.00
54038;BME280;39954;48.844;9.726;2023-06-10T01:46:18;95730.06;;;12.32;100.00
54038;BME280;39954;48.844;9.726;2023-06-10T01:47:22;95725.97;;;12.28;100.00
54038;BME280;39954;48.844;9.726;2023-06-10T01:48:28;95734.00;;;12.25;100.00
54038;BME280;39954;48.844;9.726;2023-06-10T01:49:30;95730.34;;;12.28;100.00
54038;BME280;39954;48.844;9.726;2023-06-10T01:50:35;95730.44;;;12.26;100.00
54038;BME280;39954;48.844;9.726;2023-06-10T01:51:38;95729.75;;;12.24;100.00
54038;BME280;39954;48.844;9.726;2023-06-10T01:52:46;95734.13;;;12.24;100.00
54038;BME280;39954;48.844;9.726;2023-06-10T01:53:48;95734.84;;;12.26;100.00
54038;BME280;39954;48.844;9.726;2023-06-10T01:54:54;95738.38;;;12.25;100.00
54038;BME280;39954;48.844;9.726;2023-06-10T01:55:57;95729.75;;;12.24;100.00
54038;BME280;39954;48.844;9.726;2023-06-10T01:57:03;95736.00;;;12.22;100.00
54038;BME280;39954;48.844;9.726;2023-06-10T01:58:05;95733.38;;;12.22;100.00
54038;BME280;39954;48.844;9.726;2023-06-10T01:59:11;95736.31;;;12.17;100.00
54038;BME280;39954;48.844;9.726;2023-06-10T02:00:15;95731.31;;;12.14;100.00
54038;BME280;39954;48.844;9.726;2023-06-10T02:01:20;95741.72;;;12.14;100.00
54038;BME280;39954;48.844;9.726;2023-06-10T02:02:23;95738.50;;;12.11;100.00
54038;BME280;39954;48.844;9.726;2023-06-10T02:03:28;95735.91;;;12.11;100.00
54038;BME280;39954;48.844;9.726;2023-06-10T02:04:30;95743.59;;;12.12;100.00
54038;BME280;39954;48.844;9.726;2023-06-10T02:05:35;95732.34;;;12.12;100.00
54038;BME280;39954;48.844;9.726;2023-06-10T02:06:38;95733.28;;;12.11;100.00
54038;BME280;39954;48.844;9.726;2023-06-10T02:07:46;95739.13;;;12.14;100.00
54038;BME280;39954;48.844;9.726;2023-06-10T02:08:50;95741.72;;;12.14;100.00
54038;BME280;39954;48.844;9.726;2023-06-10T02:09:55;95737.47;;;12.13;100.00
54038;BME280;39954;48.844;9.726;2023-06-10T02:10:58;95731.59;;;12.09;100.00
54038;BME280;39954;48.844;9.726;2023-06-10T02:12:04;95731.50;;;12.11;100.00
54038;BME280;39954;48.844;9.726;2023-06-10T02:13:06;95738.59;;;12.09;100.00
54038;BME280;39954;48.844;9.726;2023-06-10T02:14:12;95735.34;;;12.18;100.00
54038;BME280;39954;48.844;9.726;2023-06-10T02:15:15;95730.66;;;12.23;100.00
54038;BME280;39954;48.844;9.726;2023-06-10T02:16:20;95732.97;;;12.28;100.00
54038;BME280;39954;48.844;9.726;2023-06-10T02:17:23;95728.38;;;12.31;100.00
54038;BME280;39954;48.844;9.726;2023-06-10T02:18:29;95730.06;;;12.32;100.00
54038;BME280;39954;48.844;9.726;2023-06-10T02:19:31;95728.16;;;12.35;100.00
54038;BME280;39954;48.844;9.726;2023-06-10T02:20:38;95729.84;;;12.36;100.00
54038;BME280;39954;48.844;9.726;2023-06-10T02:21:40;95729.72;;;12.37;100.00
54038;BME280;39954;48.844;9.726;2023-06-10T02:22:48;95733.56;;;12.31;100.00
54038;BME280;39954;48.844;9.726;2023-06-10T02:23:51;95726.72;;;12.30;100.00
54038;BME280;39954;48.844;9.726;2023-06-10T02:24:56;95735.97;;;12.35;100.00
54038;BME280;39954;48.844;9.726;2023-06-10T02:25:59;95726.50;;;12.34;100.00
54038;BME280;39954;48.844;9.726;2023-06-10T02:27:05;95734.91;;;12.37;100.00
54038;BME280;39954;48.844;9.726;2023-06-10T02:28:08;95733.13;;;12.38;100.00
54038;BME280;39954;48.844;9.726;2023-06-10T02:29:13;95730.63;;;12.49;100.00
54038;BME280;39954;48.844;9.726;2023-06-10T02:30:16;95740.41;;;12.58;100.00
54038;BME280;39954;48.844;9.726;2023-06-10T02:31:21;95742.28;;;12.56;100.00
54038;BME280;39954;48.844;9.726;2023-06-10T02:32:26;95737.53;;;12.50;100.00
54038;BME280;39954;48.844;9.726;2023-06-10T02:33:31;95737.53;;;12.50;100.00
54038;BME280;39954;48.844;9.726;2023-06-10T02:34:35;95739.59;;;12.45;100.00
54038;BME280;39954;48.844;9.726;2023-06-10T02:35:41;95737.00;;;12.45;100.00
54038;BME280;39954;48.844;9.726;2023-06-10T02:36:44;95738.16;;;12.41;100.00
54038;BME280;39954;48.844;9.726;2023-06-10T02:37:54;95739.31;;;12.37;100.00
54038;BME280;39954;48.844;9.726;2023-06-10T02:38:57;95737.75;;;12.34;100.00
54038;BME280;39954;48.844;9.726;2023-06-10T02:40:02;95740.69;;;12.29;100.00
54038;BME280;39954;48.844;9.726;2023-06-10T02:41:06;95741.50;;;12.30;100.00
54038;BME280;39954;48.844;9.726;2023-06-10T02:42:11;95743.28;;;12.29;100.00
54038;BME280;39954;48.844;9.726;2023-06-10T02:43:14;95739.94;;;12.27;100.00
54038;BME280;39954;48.844;9.726;2023-06-10T02:44:19;95741.94;;;12.24;100.00
54038;BME280;39954;48.844;9.726;2023-06-10T02:45:22;95744.81;;;12.32;100.00
54038;BME280;39954;48.844;9.726;2023-06-10T02:46:27;95745.38;;;12.24;100.00
54038;BME280;39954;48.844;9.726;2023-06-10T02:47:30;95744.44;;;12.25;100.00
54038;BME280;39954;48.844;9.726;2023-06-10T02:48:40;95749.41;;;12.28;100.00
54038;BME280;39954;48.844;9.726;2023-06-10T02:49:44;95752.16;;;12.27;100.00
54038;BME280;39954;48.844;9.726;2023-06-10T02:50:49;95751.09;;;12.29;100.00
54038;BME280;39954;48.844;9.726;2023-06-10T02:51:52;95752.94;;;12.40;100.00
54038;BME280;39954;48.844;9.726;2023-06-10T02:53:01;95749.59;;;12.51;100.00
54038;BME280;39954;48.844;9.726;2023-06-10T02:54:04;95751.47;;;12.49;100.00
54038;BME280;39954;48.844;9.726;2023-06-10T02:55:09;95753.38;;;12.47;100.00
54038;BME280;39954;48.844;9.726;2023-06-10T02:56:13;95753.59;;;12.44;100.00
54038;BME280;39954;48.844;9.726;2023-06-10T02:57:18;95745.78;;;12.44;100.00
54038;BME280;39954;48.844;9.726;2023-06-10T02:58:21;95744.22;;;12.41;100.00
54038;BME280;39954;48.844;9.726;2023-06-10T02:59:28;95743.38;;;12.41;100.00
54038;BME280;39954;48.844;9.726;2023-06-10T03:00:30;95745.03;;;12.42;100.00
54038;BME280;39954;48.844;9.726;2023-06-10T03:01:36;95746.06;;;12.39;100.00
54038;BME280;39954;48.844;9.726;2023-06-10T03:02:39;95755.16;;;12.46;100.00
54038;BME280;39954;48.844;9.726;2023-06-10T03:03:45;95745.66;;;12.45;100.00
54038;BME280;39954;48.844;9.726;2023-06-10T03:04:49;95747.53;;;12.43;100.00
54038;BME280;39954;48.844;9.726;2023-06-10T03:05:58;95745.66;;;12.45;100.00
54038;BME280;39954;48.844;9.726;2023-06-10T03:07:01;95744.81;;;12.45;100.00
54038;BME280;39954;48.844;9.726;2023-06-10T03:08:12;95745.03;;;12.42;100.00
54038;BME280;39954;48.844;9.726;2023-06-10T03:09:15;95746.91;;;12.40;100.00
54038;BME280;39954;48.844;9.726;2023-06-10T03:10:21;95749.50;;;12.40;100.00
54038;BME280;39954;48.844;9.726;2023-06-10T03:11:24;95747.63;;;12.42;100.00
54038;BME280;39954;48.844;9.726;2023-06-10T03:12:30;95751.28;;;12.52;100.00
54038;BME280;39954;48.844;9.726;2023-06-10T03:13:33;95756.97;;;12.57;100.00
54038;BME280;39954;48.844;9.726;2023-06-10T03:14:39;95759.59;;;12.57;100.00
54038;BME280;39954;48.844;9.726;2023-06-10T03:15:41;95761.34;;;12.69;100.00
54038;BME280;39954;48.844;9.726;2023-06-10T03:16:48;95755.63;;;12.64;100.00
54038;BME280;39954;48.844;9.726;2023-06-10T03:17:50;95754.13;;;12.73;100.00
54038;BME280;39954;48.844;9.726;2023-06-10T03:18:56;95762.28;;;12.68;100.00
54038;BME280;39954;48.844;9.726;2023-06-10T03:19:59;95758.97;;;12.66;100.00
54038;BME280;39954;48.844;9.726;2023-06-10T03:21:05;95764.19;;;12.66;100.00
54038;BME280;39954;48.844;9.726;2023-06-10T03:22:09;95760.84;;;12.64;100.00
54038;BME280;39954;48.844;9.726;2023-06-10T03:23:18;95753.75;;;12.66;100.00
54038;BME280;39954;48.844;9.726;2023-06-10T03:24:21;95759.78;;;12.67;100.00
54038;BME280;39954;48.844;9.726;2023-06-10T03:25:27;95761.97;;;12.60;100.00
54038;BME280;39954;48.844;9.726;2023-06-10T03:26:30;95758.97;;;12.66;100.00
54038;BME280;39954;48.844;9.726;2023-06-10T03:27:36;95760.84;;;12.64;100.00
54038;BME280;39954;48.844;9.726;2023-06-10T03:28:39;95764.88;;;12.68;100.00
54038;BME280;39954;48.844;9.726;2023-06-10T03:29:46;95761.56;;;12.66;100.00
54038;BME280;39954;48.844;9.726;2023-06-10T03:30:49;95755.41;;;12.67;100.00
54038;BME280;39954;48.844;9.726;2023-06-10T03:31:54;95763.31;;;12.66;100.00
54038;BME280;39954;48.844;9.726;2023-06-10T03:32:56;95760.00;;;12.64;100.00
54038;BME280;39954;48.844;9.726;2023-06-10T03:34:02;95760.09;;;12.62;100.00
54038;BME280;39954;48.844;9.726;2023-06-10T03:35:05;95763.06;;;12.58;100.00
54038;BME280;39954;48.844;9.726;2023-06-10T03:36:12;95756.16;;;12.57;100.00
54038;BME280;39954;48.844;9.726;2023-06-10T03:37:20;95759.38;;;12.60;100.00
54038;BME280;39954;48.844;9.726;2023-06-10T03:38:25;95754.59;;;12.54;100.00
54038;BME280;39954;48.844;9.726;2023-06-10T03:39:32;95758.38;;;12.50;100.00
54038;BME280;39954;48.844;9.726;2023-06-10T03:40:35;95756.50;;;12.52;100.00
54038;BME280;39954;48.844;9.726;2023-06-10T03:41:40;95757.31;;;12.52;100.00
54038;BME280;39954;48.844;9.726;2023-06-10T03:42:43;95760.03;;;12.51;100.00
54038;BME280;39954;48.844;9.726;2023-06-10T03:43:49;95766.41;;;12.47;100.00
54038;BME280;39954;48.844;9.726;2023-06-10T03:44:52;95768.19;;;12.46;100.00
54038;BME280;39954;48.844;9.726;2023-06-10T03:45:58;95760.47;;;12.45;100.00
54038;BME280;39954;48.844;9.726;2023-06-10T03:47:01;95761.50;;;12.42;100.00
54038;BME280;39954;48.844;9.726;2023-06-10T03:48:06;95764.00;;;12.44;100.00
54038;BME280;39954;48.844;9.726;2023-06-10T03:49:11;95762.53;;;12.40;100.00
54038;BME280;39954;48.844;9.726;2023-06-10T03:50:17;95766.19;;;12.37;100.00
54038;BME280;39954;48.844;9.726;2023-06-10T03:51:20;95768.69;;;12.39;100.00
54038;BME280;39954;48.844;9.726;2023-06-10T03:52:30;95766.09;;;12.39;100.00
54038;BME280;39954;48.844;9.726;2023-06-10T03:53:36;95766.72;;;12.42;100.00
54038;BME280;39954;48.844;9.726;2023-06-10T03:54:41;95771.63;;;12.47;100.00
54038;BME280;39954;48.844;9.726;2023-06-10T03:55:43;95774.00;;;12.50;100.00
54038;BME280;39954;48.844;9.726;2023-06-10T03:56:49;95769.63;;;12.50;100.00
54038;BME280;39954;48.844;9.726;2023-06-10T03:57:52;95770.97;;;12.56;100.00
54038;BME280;39954;48.844;9.726;2023-06-10T03:58:58;95770.97;;;12.56;100.00
54038;BME280;39954;48.844;9.726;2023-06-10T04:00:01;95771.50;;;12.61;100.00
54038;BME280;39954;48.844;9.726;2023-06-10T04:01:10;95770.44;;;12.64;100.00
54038;BME280;39954;48.844;9.726;2023-06-10T04:02:15;95770.09;;;12.68;100.00
54038;BME280;39954;48.844;9.726;2023-06-10T04:03:18;95776.25;;;12.67;100.00
54038;BME280;39954;48.844;9.726;2023-06-10T04:04:25;95778.44;;;12.73;100.00
54038;BME280;39954;48.844;9.726;2023-06-10T04:05:28;95777.69;;;12.71;100.00
54038;BME280;39954;48.844;9.726;2023-06-10T04:06:33;95770.53;;;12.75;100.00
54038;BME280;39954;48.844;9.726;2023-06-10T04:07:36;95772.06;;;12.77;100.00
54038;BME280;39954;48.844;9.726;2023-06-10T04:08:46;95779.78;;;12.79;100.00
54038;BME280;39954;48.844;9.726;2023-06-10T04:09:49;95779.69;;;12.81;100.00
54038;BME280;39954;48.844;9.726;2023-06-10T04:10:55;95775.38;;;12.80;100.00
54038;BME280;39954;48.844;9.726;2023-06-10T04:11:58;95776.25;;;12.80;100.00
54038;BME280;39954;48.844;9.726;2023-06-10T04:13:04;95776.25;;;12.80;100.00
54038;BME280;39954;48.844;9.726;2023-06-10T04:14:07;95772.69;;;12.81;100.00
54038;BME280;39954;48.844;9.726;2023-06-10T04:15:13;95770.81;;;12.83;100.00
54038;BME280;39954;48.844;9.726;2023-06-10T04:16:18;95772.25;;;12.87;100.00
54038;BME280;39954;48.844;9.726;2023-06-10T04:17:24;95777.38;;;12.89;100.00
54038;BME280;39954;48.844;9.726;2023-06-10T04:18:26;95778.72;;;12.94;100.00
54038;BME280;39954;48.844;9.726;2023-06-10T04:19:32;95785.47;;;12.97;100.00
54038;BME280;39954;48.844;9.726;2023-06-10T04:20:35;95781.69;;;13.01;100.00
54038;BME280;39954;48.844;9.726;2023-06-10T04:21:41;95780.75;;;13.02;100.00
54038;BME280;39954;48.844;9.726;2023-06-10T04:22:45;95781.47;;;13.04;100.00
54038;BME280;39954;48.844;9.726;2023-06-10T04:23:54;95783.88;;;13.07;100.00
54038;BME280;39954;48.844;9.726;2023-06-10T04:24:57;95774.06;;;13.11;100.00
54038;BME280;39954;48.844;9.726;2023-06-10T04:26:02;95781.66;;;13.14;100.00
54038;BME280;39954;48.844;9.726;2023-06-10T04:27:06;95779.44;;;13.20;100.00
54038;BME280;39954;48.844;9.726;2023-06-10T04:28:13;95784.25;;;13.27;100.00
54038;BME280;39954;48.844;9.726;2023-06-10T04:29:16;95783.09;;;13.31;100.00
54038;BME280;39954;48.844;9.726;2023-06-10T04:30:23;95781.69;;;13.38;100.00
54038;BME280;39954;48.844;9.726;2023-06-10T04:31:26;95789.19;;;13.42;100.00
54038;BME280;39954;48.844;9.726;2023-06-10T04:32:32;95790.75;;;13.45;100.00
54038;BME280;39954;48.844;9.726;2023-06-10T04:33:35;95784.34;;;13.49;100.00
54038;BME280;39954;48.844;9.726;2023-06-10T04:34:41;95790.41;;;13.50;100.00
54038;BME280;39954;48.844;9.726;2023-06-10T04:35:44;95789.34;;;13.52;100.00
54038;BME280;39954;48.844;9.726;2023-06-10T04:36:50;95783.69;;;13.58;100.00
54038;BME280;39954;48.844;9.726;2023-06-10T04:37:53;95784.38;;;13.60;100.00
54038;BME280;39954;48.844;9.726;2023-06-10T04:39:02;95786.78;;;13.63;100.00
54038;BME280;39954;48.844;9.726;2023-06-10T04:40:09;95788.00;;;13.71;100.00
54038;BME280;39954;48.844;9.726;2023-06-10T04:41:11;95784.44;;;13.72;100.00
54038;BME280;39954;48.844;9.726;2023-06-10T04:42:16;95787.53;;;13.77;100.00
54038;BME280;39954;48.844;9.726;2023-06-10T04:43:19;95798.59;;;13.80;100.00
54038;BME280;39954;48.844;9.726;2023-06-10T04:44:25;95789.47;;;13.86;100.00
54038;BME280;39954;48.844;9.726;2023-06-10T04:45:28;95791.84;;;13.89;100.00
54038;BME280;39954;48.844;9.726;2023-06-10T04:46:34;95796.63;;;13.95;100.00
54038;BME280;39954;48.844;9.726;2023-06-10T04:47:37;95792.97;;;13.98;100.00
54038;BME280;39954;48.844;9.726;2023-06-10T04:48:43;95797.81;;;14.02;100.00
54038;BME280;39954;48.844;9.726;2023-06-10T04:49:50;95797.34;;;14.08;100.00
54038;BME280;39954;48.844;9.726;2023-06-10T04:50:56;95790.84;;;14.14;100.00
54038;BME280;39954;48.844;9.726;2023-06-10T04:51:59;95794.06;;;14.18;100.00
54038;BME280;39954;48.844;9.726;2023-06-10T04:53:06;95791.09;;;14.22;100.00
54038;BME280;39954;48.844;9.726;2023-06-10T04:54:14;95793.34;;;14.27;100.00
54038;BME280;39954;48.844;9.726;2023-06-10T04:55:18;95794.44;;;14.36;100.00
54038;BME280;39954;48.844;9.726;2023-06-10T04:56:25;95791.72;;;14.37;100.00
54038;BME280;39954;48.844;9.726;2023-06-10T04:57:31;95798.38;;;14.41;100.00
54038;BME280;39954;48.844;9.726;2023-06-10T04:58:37;95795.03;;;14.50;100.00
54038;BME280;39954;48.844;9.726;2023-06-10T04:59:40;95799.84;;;14.57;100.00
54038;BME280;39954;48.844;9.726;2023-06-10T05:00:46;95805.78;;;14.59;100.00
54038;BME280;39954;48.844;9.726;2023-06-10T05:01:51;95794.84;;;14.65;100.00
54038;BME280;39954;48.844;9.726;2023-06-10T05:02:54;95789.16;;;14.71;100.00
54038;BME280;39954;48.844;9.726;2023-06-10T05:04:03;95795.53;;;14.78;100.00
54038;BME280;39954;48.844;9.726;2023-06-10T05:05:10;95803.63;;;14.86;100.00
54038;BME280;39954;48.844;9.726;2023-06-10T05:06:23;95790.19;;;14.91;100.00
54038;BME280;39954;48.844;9.726;2023-06-10T05:07:27;95794.69;;;15.00;100.00
54038;BME280;39954;48.844;9.726;2023-06-10T05:08:33;95797.88;;;15.04;100.00
54038;BME280;39954;48.844;9.726;2023-06-10T05:09:38;95792.19;;;15.10;100.00
54038;BME280;39954;48.844;9.726;2023-06-10T05:10:44;95793.72;;;15.12;100.00
54038;BME280;39954;48.844;9.726;2023-06-10T05:11:47;95799.41;;;15.17;100.00
54038;BME280;39954;48.844;9.726;2023-06-10T05:12:57;95794.28;;;15.27;100.00
54038;BME280;39954;48.844;9.726;2023-06-10T05:14:06;95797.38;;;15.32;100.00
54038;BME280;39954;48.844;9.726;2023-06-10T05:15:10;95804.97;;;15.35;100.00
54038;BME280;39954;48.844;9.726;2023-06-10T05:16:17;95798.16;;;15.44;100.00
54038;BME280;39954;48.844;9.726;2023-06-10T05:17:20;95801.81;;;15.53;100.00
54038;BME280;39954;48.844;9.726;2023-06-10T05:18:27;95797.16;;;15.56;100.00
54038;BME280;39954;48.844;9.726;2023-06-10T05:19:30;95799.53;;;15.59;100.00
54038;BME280;39954;48.844;9.726;2023-06-10T05:20:38;95795.72;;;15.63;100.00
54038;BME280;39954;48.844;9.726;2023-06-10T05:21:41;95798.91;;;15.67;100.00
54038;BME280;39954;48.844;9.726;2023-06-10T05:22:47;95800.13;;;15.74;100.00
54038;BME280;39954;48.844;9.726;2023-06-10T05:23:51;95801.00;;;15.84;100.00
54038;BME280;39954;48.844;9.726;2023-06-10T05:25:04;95797.88;;;15.91;100.00
54038;BME280;39954;48.844;9.726;2023-06-10T05:26:08;95804.81;;;15.92;100.00
54038;BME280;39954;48.844;9.726;2023-06-10T05:27:14;95801.91;;;15.95;100.00
54038;BME280;39954;48.844;9.726;2023-06-10T05:28:17;95803.31;;;15.99;100.00
54038;BME280;39954;48.844;9.726;2023-06-10T05:29:28;95798.53;;;16.04;100.00
54038;BME280;39954;48.844;9.726;2023-06-10T05:30:33;95800.91;;;16.07;100.00
54038;BME280;39954;48.844;9.726;2023-06-10T05:31:39;95805.06;;;16.09;100.00
54038;BME280;39954;48.844;9.726;2023-06-10T05:32:42;95804.78;;;16.13;100.00
54038;BME280;39954;48.844;9.726;2023-06-10T05:33:48;95801.91;;;16.16;100.00
54038;BME280;39954;48.844;9.726;2023-06-10T05:34:52;95806.78;;;16.20;100.00
54038;BME280;39954;48.844;9.726;2023-06-10T05:35:59;95806.53;;;16.23;100.00
54038;BME280;39954;48.844;9.726;2023-06-10T05:37:05;95798.53;;;16.25;100.00
54038;BME280;39954;48.844;9.726;2023-06-10T05:38:11;95801.63;;;16.30;100.00
54038;BME280;39954;48.844;9.726;2023-06-10T05:39:14;95804.81;;;16.33;100.00
54038;BME280;39954;48.844;9.726;2023-06-10T05:40:22;95804.97;;;16.42;100.00
54038;BME280;39954;48.844;9.726;2023-06-10T05:41:25;95799.59;;;16.43;100.00